Anzahl Datensätze: 286
min. Temperatur: 14.3 °C
max. Temperatur: 23.5 °C
max. Windgeschwindigkeit: 33.8 km/h
Niederschlagsumme: 0.2 mm
| Datum |
Zeit |
Temp °C |
Feuchte % |
Taupunkt °C |
Luftdruck hPa |
Wind km/h |
Windrichtung |
Strahlung w/m² |
Niederschlag mm |
|---|---|---|---|---|---|---|---|---|---|
| 30.08.2025 | 00:03 | 15.1 | 91 | 13.6 | 1004.6 | 4.3 | SW | 0 | 0.0 |
| 30.08.2025 | 00:08 | 15.1 | 91 | 13.6 | 1004.7 | 4.3 | SW | 0 | 0.0 |
| 30.08.2025 | 00:13 | 14.9 | 92 | 13.6 | 1004.7 | 4.3 | SW | 0 | 0.0 |
| 30.08.2025 | 00:18 | 14.9 | 92 | 13.6 | 1004.8 | 6.1 | SW | 0 | 0.0 |
| 30.08.2025 | 00:23 | 14.9 | 92 | 13.6 | 1004.7 | 4.3 | SSW | 0 | 0.0 |
| 30.08.2025 | 00:28 | 14.9 | 92 | 13.6 | 1004.7 | 4.3 | SSW | 0 | 0.0 |
| 30.08.2025 | 00:33 | 14.8 | 92 | 13.5 | 1004.6 | 4.3 | SSW | 0 | 0.0 |
| 30.08.2025 | 00:38 | 14.8 | 92 | 13.5 | 1004.6 | 4.3 | SSW | 0 | 0.0 |
| 30.08.2025 | 00:44 | 14.8 | 92 | 13.5 | 1004.7 | 0.0 | SSW | 0 | 0.0 |
| 30.08.2025 | 00:49 | 14.7 | 92 | 13.4 | 1004.7 | 1.8 | SSW | 0 | 0.0 |
| 30.08.2025 | 00:54 | 14.6 | 93 | 13.5 | 1004.7 | 8.3 | SSW | 0 | 0.0 |
| 30.08.2025 | 00:59 | 14.6 | 93 | 13.5 | 1004.7 | 1.8 | SSW | 0 | 0.0 |
| 30.08.2025 | 01:04 | 14.5 | 93 | 13.4 | 1004.8 | 4.3 | SW | 0 | 0.0 |
| 30.08.2025 | 01:09 | 14.6 | 93 | 13.5 | 1004.9 | 10.4 | SW | 0 | 0.0 |
| 30.08.2025 | 01:14 | 14.6 | 92 | 13.3 | 1004.9 | 4.3 | SW | 0 | 0.0 |
| 30.08.2025 | 01:19 | 14.7 | 92 | 13.4 | 1004.9 | 8.3 | SW | 0 | 0.0 |
| 30.08.2025 | 01:24 | 14.8 | 92 | 13.5 | 1004.9 | 6.1 | SSW | 0 | 0.0 |
| 30.08.2025 | 01:29 | 14.7 | 91 | 13.2 | 1004.9 | 4.3 | SW | 0 | 0.0 |
| 30.08.2025 | 01:34 | 14.7 | 91 | 13.2 | 1005.0 | 6.1 | SSW | 0 | 0.0 |
| 30.08.2025 | 01:39 | 14.7 | 91 | 13.2 | 1005.0 | 10.4 | SW | 0 | 0.0 |
| 30.08.2025 | 01:44 | 14.7 | 91 | 13.2 | 1005.1 | 8.3 | S | 0 | 0.0 |
| 30.08.2025 | 01:49 | 14.6 | 91 | 13.1 | 1005.1 | 8.3 | SSW | 0 | 0.0 |
| 30.08.2025 | 01:54 | 14.6 | 91 | 13.1 | 1005.1 | 6.1 | SSW | 0 | 0.0 |
| 30.08.2025 | 01:59 | 14.6 | 91 | 13.1 | 1005.2 | 4.3 | SSW | 0 | 0.0 |
| 30.08.2025 | 02:04 | 14.6 | 91 | 13.1 | 1005.3 | 4.3 | SW | 0 | 0.0 |
| 30.08.2025 | 02:09 | 14.6 | 91 | 13.1 | 1005.3 | 6.1 | SW | 0 | 0.0 |
| 30.08.2025 | 02:14 | 14.6 | 91 | 13.1 | 1005.4 | 4.3 | SSW | 0 | 0.0 |
| 30.08.2025 | 02:19 | 14.7 | 91 | 13.2 | 1005.5 | 6.1 | WSW | 0 | 0.0 |
| 30.08.2025 | 02:24 | 14.7 | 91 | 13.2 | 1005.5 | 8.3 | WSW | 0 | 0.0 |
| 30.08.2025 | 02:29 | 14.8 | 91 | 13.3 | 1005.6 | 14.4 | WSW | 0 | 0.0 |
| 30.08.2025 | 02:34 | 14.8 | 91 | 13.3 | 1005.6 | 4.3 | SW | 0 | 0.0 |
| 30.08.2025 | 02:39 | 14.8 | 91 | 13.3 | 1005.6 | 8.3 | SSW | 0 | 0.0 |
| 30.08.2025 | 02:44 | 14.8 | 91 | 13.3 | 1005.6 | 6.1 | SSW | 0 | 0.0 |
| 30.08.2025 | 02:49 | 14.8 | 91 | 13.3 | 1005.7 | 8.3 | SSW | 0 | 0.0 |
| 30.08.2025 | 02:54 | 14.8 | 91 | 13.3 | 1005.8 | 10.4 | SW | 0 | 0.0 |
| 30.08.2025 | 02:59 | 14.9 | 91 | 13.4 | 1005.8 | 6.1 | SW | 0 | 0.0 |
| 30.08.2025 | 03:04 | 14.9 | 91 | 13.4 | 1005.8 | 6.1 | WSW | 0 | 0.0 |
| 30.08.2025 | 03:09 | 14.9 | 91 | 13.4 | 1005.9 | 6.1 | SW | 0 | 0.0 |
| 30.08.2025 | 03:14 | 14.9 | 91 | 13.4 | 1006.0 | 6.1 | SSW | 0 | 0.0 |
| 30.08.2025 | 03:19 | 14.9 | 91 | 13.4 | 1006.1 | 6.1 | SW | 0 | 0.0 |
| 30.08.2025 | 03:24 | 14.9 | 91 | 13.4 | 1006.1 | 10.4 | S | 0 | 0.0 |
| 30.08.2025 | 03:29 | 14.9 | 91 | 13.4 | 1006.1 | 6.1 | SW | 0 | 0.0 |
| 30.08.2025 | 03:34 | 14.9 | 91 | 13.4 | 1006.1 | 12.6 | SW | 0 | 0.0 |
| 30.08.2025 | 03:39 | 14.9 | 91 | 13.4 | 1006.2 | 1.8 | SSW | 0 | 0.0 |
| 30.08.2025 | 03:44 | 15.0 | 91 | 13.5 | 1006.2 | 10.4 | S | 0 | 0.0 |
| 30.08.2025 | 03:50 | 15.0 | 91 | 13.5 | 1006.2 | 6.1 | SW | 0 | 0.0 |
| 30.08.2025 | 03:55 | 15.0 | 91 | 13.5 | 1006.3 | 6.1 | SSW | 0 | 0.0 |
| 30.08.2025 | 04:00 | 15.0 | 92 | 13.7 | 1006.3 | 8.3 | S | 0 | 0.2 |
| 30.08.2025 | 04:05 | 15.0 | 92 | 13.7 | 1006.3 | 6.1 | SSW | 0 | 0.2 |
| 30.08.2025 | 04:10 | 14.8 | 92 | 13.5 | 1006.3 | 6.1 | SW | 0 | 0.2 |
| 30.08.2025 | 04:15 | 14.8 | 92 | 13.5 | 1006.4 | 6.1 | SW | 0 | 0.2 |
| 30.08.2025 | 04:20 | 14.8 | 92 | 13.5 | 1006.4 | 12.6 | SSW | 0 | 0.2 |
| 30.08.2025 | 04:25 | 14.8 | 92 | 13.5 | 1006.5 | 6.1 | SW | 0 | 0.2 |
| 30.08.2025 | 04:30 | 14.7 | 92 | 13.4 | 1006.5 | 8.3 | SSW | 0 | 0.2 |
| 30.08.2025 | 04:35 | 14.8 | 92 | 13.5 | 1006.6 | 12.6 | SSW | 0 | 0.2 |
| 30.08.2025 | 04:40 | 14.8 | 92 | 13.5 | 1006.6 | 6.1 | SW | 0 | 0.2 |
| 30.08.2025 | 04:45 | 14.8 | 92 | 13.5 | 1006.6 | 6.1 | S | 0 | 0.2 |
| 30.08.2025 | 04:50 | 14.7 | 92 | 13.4 | 1006.6 | 8.3 | SW | 0 | 0.2 |
| 30.08.2025 | 04:55 | 14.7 | 92 | 13.4 | 1006.6 | 4.3 | WSW | 0 | 0.2 |
| 30.08.2025 | 05:00 | 14.7 | 92 | 13.4 | 1006.7 | 10.4 | SSW | 0 | 0.2 |
| 30.08.2025 | 05:05 | 14.7 | 92 | 13.4 | 1006.7 | 12.6 | S | 0 | 0.2 |
| 30.08.2025 | 05:10 | 14.7 | 92 | 13.4 | 1006.7 | 8.3 | SSW | 0 | 0.2 |
| 30.08.2025 | 05:15 | 14.7 | 92 | 13.4 | 1006.8 | 6.1 | SW | 0 | 0.2 |
| 30.08.2025 | 05:20 | 14.7 | 92 | 13.4 | 1006.8 | 8.3 | SSW | 0 | 0.2 |
| 30.08.2025 | 05:25 | 14.7 | 92 | 13.4 | 1006.8 | 10.4 | SSW | 0 | 0.2 |
| 30.08.2025 | 05:30 | 14.7 | 92 | 13.4 | 1006.8 | 8.3 | S | 0 | 0.2 |
| 30.08.2025 | 05:35 | 14.7 | 92 | 13.4 | 1006.9 | 4.3 | SSW | 0 | 0.2 |
| 30.08.2025 | 05:40 | 14.7 | 92 | 13.4 | 1006.9 | 1.8 | SSW | 0 | 0.2 |
| 30.08.2025 | 05:45 | 14.7 | 92 | 13.4 | 1006.8 | 4.3 | SSW | 0 | 0.2 |
| 30.08.2025 | 05:50 | 14.6 | 92 | 13.3 | 1006.9 | 1.8 | SSW | 0 | 0.2 |
| 30.08.2025 | 05:55 | 14.5 | 92 | 13.2 | 1006.9 | 4.3 | SSW | 0 | 0.2 |
| 30.08.2025 | 06:00 | 14.4 | 92 | 13.1 | 1007.0 | 4.3 | SSW | 0 | 0.2 |
| 30.08.2025 | 06:05 | 14.3 | 92 | 13.0 | 1007.1 | 4.3 | SSW | 0 | 0.2 |
| 30.08.2025 | 06:10 | 14.3 | 93 | 13.2 | 1007.0 | 1.8 | SSW | 0 | 0.2 |
| 30.08.2025 | 06:15 | 14.3 | 93 | 13.2 | 1007.0 | 1.8 | SSW | 0 | 0.2 |
| 30.08.2025 | 06:20 | 14.4 | 93 | 13.3 | 1007.1 | 8.3 | SSO | 0 | 0.2 |
| 30.08.2025 | 06:25 | 14.5 | 93 | 13.4 | 1007.3 | 4.3 | SW | 0 | 0.2 |
| 30.08.2025 | 06:30 | 14.5 | 93 | 13.4 | 1007.3 | 4.3 | SSW | 0 | 0.2 |
| 30.08.2025 | 06:35 | 14.6 | 93 | 13.5 | 1007.3 | 10.4 | SSW | 0 | 0.2 |
| 30.08.2025 | 06:41 | 14.6 | 93 | 13.5 | 1007.4 | 6.1 | SSW | 0 | 0.2 |
| 30.08.2025 | 06:46 | 14.6 | 93 | 13.5 | 1007.5 | 14.4 | SSW | 0 | 0.2 |
| 30.08.2025 | 06:51 | 14.6 | 93 | 13.5 | 1007.6 | 8.3 | SSW | 0 | 0.2 |
| 30.08.2025 | 06:56 | 14.6 | 93 | 13.5 | 1007.6 | 8.3 | SW | 5 | 0.2 |
| 30.08.2025 | 07:01 | 14.7 | 92 | 13.4 | 1007.7 | 6.1 | WSW | 7 | 0.2 |
| 30.08.2025 | 07:06 | 14.7 | 92 | 13.4 | 1007.7 | 4.3 | SW | 9 | 0.2 |
| 30.08.2025 | 07:11 | 14.7 | 92 | 13.4 | 1007.8 | 4.3 | W | 9 | 0.2 |
| 30.08.2025 | 07:16 | 14.7 | 92 | 13.4 | 1007.9 | 6.1 | O | 11 | 0.2 |
| 30.08.2025 | 07:21 | 14.7 | 92 | 13.4 | 1008.0 | 12.6 | W | 7 | 0.2 |
| 30.08.2025 | 07:26 | 14.8 | 92 | 13.5 | 1008.0 | 8.3 | SW | 18 | 0.2 |
| 30.08.2025 | 07:31 | 14.8 | 92 | 13.5 | 1008.0 | 14.4 | SW | 28 | 0.2 |
| 30.08.2025 | 07:36 | 14.9 | 92 | 13.6 | 1008.0 | 6.1 | SSW | 21 | 0.2 |
| 30.08.2025 | 07:41 | 14.9 | 92 | 13.6 | 1008.1 | 6.1 | SSW | 14 | 0.2 |
| 30.08.2025 | 07:46 | 14.9 | 92 | 13.6 | 1008.1 | 18.7 | WSW | 16 | 0.2 |
| 30.08.2025 | 07:51 | 15.0 | 92 | 13.7 | 1008.2 | 10.4 | SW | 28 | 0.2 |
| 30.08.2025 | 07:56 | 15.1 | 92 | 13.8 | 1008.2 | 18.7 | S | 51 | 0.2 |
| 30.08.2025 | 08:01 | 15.1 | 92 | 13.8 | 1008.2 | 12.6 | S | 47 | 0.2 |
| 30.08.2025 | 08:06 | 15.1 | 92 | 13.8 | 1008.3 | 1.8 | SSW | 77 | 0.2 |
| 30.08.2025 | 08:11 | 15.2 | 92 | 13.9 | 1008.4 | 8.3 | SSW | 81 | 0.2 |
| 30.08.2025 | 08:16 | 15.3 | 91 | 13.8 | 1008.4 | 8.3 | SSW | 54 | 0.2 |
| 30.08.2025 | 08:21 | 15.3 | 91 | 13.8 | 1008.5 | 6.1 | SW | 74 | 0.2 |
| 30.08.2025 | 08:26 | 15.3 | 91 | 13.8 | 1008.5 | 4.3 | SSW | 86 | 0.2 |
| 30.08.2025 | 08:31 | 15.5 | 91 | 14.0 | 1008.6 | 6.1 | SW | 76 | 0.2 |
| 30.08.2025 | 08:36 | 15.7 | 91 | 14.2 | 1008.7 | 4.3 | SSW | 207 | 0.2 |
| 30.08.2025 | 08:41 | 15.8 | 90 | 14.2 | 1008.7 | 10.4 | S | 155 | 0.2 |
| 30.08.2025 | 08:46 | 16.1 | 90 | 14.5 | 1008.8 | 8.3 | WNW | 278 | 0.2 |
| 30.08.2025 | 08:51 | 16.3 | 88 | 14.3 | 1008.9 | 4.3 | SW | 301 | 0.2 |
| 30.08.2025 | 08:56 | 16.2 | 88 | 14.2 | 1008.9 | 8.3 | WSW | 135 | 0.2 |
| 30.08.2025 | 09:01 | 16.3 | 89 | 14.5 | 1009.0 | 14.4 | SSW | 346 | 0.2 |
| 30.08.2025 | 09:06 | 16.7 | 89 | 14.9 | 1009.1 | 16.9 | S | 253 | 0.2 |
| 30.08.2025 | 09:11 | 16.7 | 87 | 14.5 | 1009.1 | 8.3 | S | 165 | 0.2 |
| 30.08.2025 | 09:16 | 16.6 | 87 | 14.4 | 1009.2 | 6.1 | WSW | 155 | 0.2 |
| 30.08.2025 | 09:21 | 16.6 | 88 | 14.6 | 1009.3 | 6.1 | SW | 165 | 0.2 |
| 30.08.2025 | 09:26 | 16.5 | 88 | 14.5 | 1009.3 | 10.4 | SSW | 195 | 0.2 |
| 30.08.2025 | 09:31 | 16.7 | 88 | 14.7 | 1009.3 | 10.4 | SW | 257 | 0.2 |
| 30.08.2025 | 09:36 | 17.1 | 86 | 14.7 | 1009.3 | 4.3 | SSW | 283 | 0.2 |
| 30.08.2025 | 09:42 | 17.1 | 85 | 14.6 | 1009.4 | 12.6 | SSW | 165 | 0.2 |
| 30.08.2025 | 09:47 | 17.1 | 85 | 14.6 | 1009.4 | 16.9 | SW | 446 | 0.2 |
| 30.08.2025 | 09:52 | 17.3 | 84 | 14.6 | 1009.6 | 10.4 | S | 243 | 0.2 |
| 30.08.2025 | 09:57 | 17.4 | 84 | 14.7 | 1009.6 | 10.4 | WSW | 188 | 0.2 |
| 30.08.2025 | 10:02 | 17.4 | 84 | 14.7 | 1009.6 | 14.4 | WSW | 223 | 0.2 |
| 30.08.2025 | 10:07 | 17.6 | 85 | 15.0 | 1009.6 | 16.9 | SSW | 373 | 0.2 |
| 30.08.2025 | 10:12 | 18.1 | 84 | 15.4 | 1009.7 | 8.3 | S | 371 | 0.2 |
| 30.08.2025 | 10:17 | 18.3 | 81 | 15.0 | 1009.9 | 14.4 | SSW | 452 | 0.2 |
| 30.08.2025 | 10:22 | 18.1 | 81 | 14.8 | 1009.9 | 14.4 | SSW | 204 | 0.2 |
| 30.08.2025 | 10:27 | 18.4 | 81 | 15.1 | 1010.0 | 6.1 | WNW | 515 | 0.2 |
| 30.08.2025 | 10:32 | 18.6 | 81 | 15.3 | 1010.0 | 4.3 | W | 708 | 0.2 |
| 30.08.2025 | 10:37 | 18.4 | 80 | 14.9 | 1010.0 | 16.9 | SW | 211 | 0.2 |
| 30.08.2025 | 10:42 | 18.3 | 80 | 14.8 | 1009.9 | 12.6 | S | 497 | 0.2 |
| 30.08.2025 | 10:47 | 18.6 | 78 | 14.7 | 1010.0 | 18.7 | WSW | 360 | 0.2 |
| 30.08.2025 | 10:52 | 18.5 | 80 | 15.0 | 1010.1 | 27.0 | SW | 320 | 0.2 |
| 30.08.2025 | 10:57 | 18.4 | 79 | 14.7 | 1010.2 | 6.1 | SSW | 204 | 0.2 |
| 30.08.2025 | 11:02 | 18.1 | 80 | 14.6 | 1010.2 | 18.7 | SSW | 267 | 0.2 |
| 30.08.2025 | 11:07 | 18.1 | 81 | 14.8 | 1010.2 | 4.3 | SSW | 188 | 0.2 |
| 30.08.2025 | 11:12 | 18.5 | 81 | 15.2 | 1010.2 | 12.6 | SW | 563 | 0.2 |
| 30.08.2025 | 11:17 | 18.8 | 79 | 15.1 | 1010.3 | 18.7 | W | 438 | 0.2 |
| 30.08.2025 | 11:22 | 19.1 | 76 | 14.8 | 1010.3 | 10.4 | SSW | 278 | 0.2 |
| 30.08.2025 | 11:27 | 19.1 | 76 | 14.8 | 1010.2 | 12.6 | S | 587 | 0.2 |
| 30.08.2025 | 11:32 | 19.6 | 76 | 15.3 | 1010.2 | 21.2 | SW | 564 | 0.2 |
| 30.08.2025 | 11:37 | 19.9 | 76 | 15.5 | 1010.2 | 23.0 | S | 940 | 0.2 |
| 30.08.2025 | 11:42 | 19.5 | 76 | 15.2 | 1010.3 | 12.6 | S | 367 | 0.2 |
| 30.08.2025 | 11:47 | 19.1 | 77 | 15.0 | 1010.3 | 12.6 | SW | 197 | 0.2 |
| 30.08.2025 | 11:52 | 18.7 | 78 | 14.8 | 1010.3 | 6.1 | SW | 195 | 0.2 |
| 30.08.2025 | 11:57 | 18.6 | 80 | 15.1 | 1010.3 | 8.3 | W | 218 | 0.2 |
| 30.08.2025 | 12:02 | 18.8 | 79 | 15.1 | 1010.3 | 8.3 | SW | 264 | 0.2 |
| 30.08.2025 | 12:07 | 19.3 | 78 | 15.4 | 1010.2 | 8.3 | SSW | 304 | 0.2 |
| 30.08.2025 | 12:12 | 20.0 | 75 | 15.4 | 1010.3 | 8.3 | SW | 378 | 0.2 |
| 30.08.2025 | 12:17 | 19.6 | 76 | 15.3 | 1010.3 | 12.6 | SSW | 167 | 0.2 |
| 30.08.2025 | 12:23 | 18.9 | 78 | 15.0 | 1010.3 | 1.8 | WNW | 239 | 0.2 |
| 30.08.2025 | 12:28 | 18.9 | 78 | 15.0 | 1010.4 | 12.6 | SW | 113 | 0.2 |
| 30.08.2025 | 12:33 | 18.6 | 80 | 15.1 | 1010.3 | 4.3 | WSW | 132 | 0.2 |
| 30.08.2025 | 12:38 | 18.5 | 80 | 15.0 | 1010.4 | 8.3 | WSW | 135 | 0.2 |
| 30.08.2025 | 12:43 | 18.3 | 81 | 15.0 | 1010.5 | 6.1 | WSW | 97 | 0.2 |
| 30.08.2025 | 12:48 | 19.1 | 81 | 15.8 | 1010.5 | 10.4 | SSW | 842 | 0.2 |
| 30.08.2025 | 12:53 | 20.2 | 77 | 16.0 | 1010.4 | 8.3 | SW | 970 | 0.2 |
| 30.08.2025 | 12:58 | 20.6 | 75 | 16.0 | 1010.3 | 8.3 | SW | 953 | 0.2 |
| 30.08.2025 | 13:03 | 21.1 | 74 | 16.3 | 1010.3 | 10.4 | WNW | 993 | 0.2 |
| 30.08.2025 | 13:08 | 21.3 | 70 | 15.6 | 1010.3 | 25.2 | WSW | 1028 | 0.2 |
| 30.08.2025 | 13:13 | 20.4 | 73 | 15.4 | 1010.4 | 33.8 | W | 120 | 0.2 |
| 30.08.2025 | 13:18 | 19.7 | 74 | 14.9 | 1010.5 | 4.3 | SW | 83 | 0.2 |
| 30.08.2025 | 13:23 | 19.4 | 76 | 15.1 | 1010.6 | 10.4 | SW | 788 | 0.2 |
| 30.08.2025 | 13:28 | 20.6 | 73 | 15.6 | 1010.5 | 12.6 | S | 896 | 0.2 |
| 30.08.2025 | 13:33 | 20.9 | 70 | 15.2 | 1010.5 | 6.1 | W | 828 | 0.2 |
| 30.08.2025 | 13:38 | 20.9 | 69 | 15.0 | 1010.5 | 8.3 | WSW | 775 | 0.2 |
| 30.08.2025 | 13:43 | 21.3 | 67 | 14.9 | 1010.5 | 1.8 | W | 805 | 0.2 |
| 30.08.2025 | 13:48 | 21.6 | 68 | 15.4 | 1010.5 | 6.1 | NW | 875 | 0.2 |
| 30.08.2025 | 13:53 | 22.1 | 70 | 16.4 | 1010.6 | 18.7 | WSW | 962 | 0.2 |
| 30.08.2025 | 13:58 | 22.1 | 69 | 16.1 | 1010.6 | 10.4 | WSW | 817 | 0.2 |
| 30.08.2025 | 14:03 | 22.1 | 66 | 15.4 | 1010.6 | 18.7 | S | 810 | 0.2 |
| 30.08.2025 | 14:08 | 21.9 | 66 | 15.3 | 1010.6 | 12.6 | SSW | 796 | 0.2 |
| 30.08.2025 | 14:13 | 22.1 | 65 | 15.2 | 1010.7 | 18.7 | SSW | 763 | 0.2 |
| 30.08.2025 | 14:18 | 22.1 | 63 | 14.7 | 1010.5 | 6.1 | WSW | 761 | 0.2 |
| 30.08.2025 | 14:23 | 21.9 | 64 | 14.8 | 1010.6 | 18.7 | WSW | 752 | 0.2 |
| 30.08.2025 | 14:28 | 22.0 | 66 | 15.4 | 1010.6 | 8.3 | W | 752 | 0.2 |
| 30.08.2025 | 14:33 | 21.9 | 66 | 15.3 | 1010.7 | 18.7 | W | 772 | 0.2 |
| 30.08.2025 | 14:38 | 21.7 | 66 | 15.1 | 1010.6 | 10.4 | WSW | 244 | 0.2 |
| 30.08.2025 | 14:43 | 21.9 | 67 | 15.5 | 1010.5 | 23.0 | WSW | 798 | 0.2 |
| 30.08.2025 | 14:48 | 22.3 | 63 | 14.9 | 1010.5 | 4.3 | WSW | 738 | 0.2 |
| 30.08.2025 | 14:53 | 22.2 | 64 | 15.1 | 1010.5 | 6.1 | WNW | 717 | 0.2 |
| 30.08.2025 | 14:58 | 22.4 | 64 | 15.3 | 1010.5 | 14.4 | SW | 710 | 0.2 |
| 30.08.2025 | 15:03 | 22.4 | 62 | 14.8 | 1010.6 | 18.7 | WSW | 696 | 0.2 |
| 30.08.2025 | 15:08 | 22.6 | 62 | 14.9 | 1010.6 | 14.4 | SW | 687 | 0.2 |
| 30.08.2025 | 15:13 | 22.7 | 62 | 15.0 | 1010.5 | 14.4 | WSW | 684 | 0.2 |
| 30.08.2025 | 15:18 | 22.8 | 62 | 15.1 | 1010.5 | 6.1 | WSW | 677 | 0.2 |
| 30.08.2025 | 15:24 | 22.8 | 62 | 15.1 | 1010.4 | 10.4 | SW | 694 | 0.2 |
| 30.08.2025 | 15:29 | 23.1 | 59 | 14.6 | 1010.5 | 21.2 | W | 664 | 0.2 |
| 30.08.2025 | 15:34 | 22.9 | 59 | 14.5 | 1010.4 | 16.9 | SSW | 663 | 0.2 |
| 30.08.2025 | 15:39 | 23.0 | 58 | 14.3 | 1010.5 | 12.6 | WSW | 659 | 0.2 |
| 30.08.2025 | 15:44 | 22.8 | 59 | 14.4 | 1010.5 | 10.4 | S | 668 | 0.2 |
| 30.08.2025 | 15:49 | 23.2 | 59 | 14.7 | 1010.4 | 14.4 | SSW | 633 | 0.2 |
| 30.08.2025 | 15:54 | 23.3 | 56 | 14.0 | 1010.5 | 23.0 | SW | 624 | 0.2 |
| 30.08.2025 | 15:59 | 23.3 | 58 | 14.6 | 1010.4 | 10.4 | WSW | 631 | 0.2 |
| 30.08.2025 | 16:04 | 23.3 | 57 | 14.3 | 1010.5 | 14.4 | SSW | 608 | 0.2 |
| 30.08.2025 | 16:09 | 23.5 | 58 | 14.8 | 1010.5 | 12.6 | W | 608 | 0.2 |
| 30.08.2025 | 16:14 | 22.4 | 59 | 14.0 | 1010.5 | 12.6 | S | 635 | 0.2 |
| 30.08.2025 | 16:19 | 22.3 | 60 | 14.2 | 1010.6 | 14.4 | W | 220 | 0.2 |
| 30.08.2025 | 16:24 | 22.5 | 61 | 14.6 | 1010.5 | 8.3 | W | 668 | 0.2 |
| 30.08.2025 | 16:29 | 23.2 | 59 | 14.7 | 1010.6 | 21.2 | SSW | 642 | 0.2 |
| 30.08.2025 | 16:34 | 23.4 | 58 | 14.7 | 1010.6 | 12.6 | W | 647 | 0.2 |
| 30.08.2025 | 16:39 | 23.0 | 58 | 14.3 | 1010.6 | 23.0 | W | 621 | 0.2 |
| 30.08.2025 | 16:44 | 22.3 | 60 | 14.2 | 1010.6 | 18.7 | SW | 162 | 0.2 |
| 30.08.2025 | 16:49 | 21.9 | 61 | 14.0 | 1010.7 | 8.3 | WSW | 183 | 0.2 |
| 30.08.2025 | 16:54 | 21.6 | 63 | 14.3 | 1010.7 | 16.9 | W | 223 | 0.2 |
| 30.08.2025 | 16:59 | 21.9 | 62 | 14.3 | 1010.7 | 10.4 | WSW | 236 | 0.2 |
| 30.08.2025 | 17:04 | 21.9 | 64 | 14.8 | 1010.7 | 12.6 | W | 188 | 0.2 |
| 30.08.2025 | 17:09 | 22.1 | 64 | 15.0 | 1010.7 | 12.6 | WNW | 555 | 0.2 |
| 30.08.2025 | 17:14 | 22.6 | 62 | 14.9 | 1010.6 | 10.4 | WSW | 501 | 0.2 |
| 30.08.2025 | 17:19 | 22.5 | 60 | 14.3 | 1010.7 | 16.9 | S | 151 | 0.2 |
| 30.08.2025 | 17:24 | 22.7 | 61 | 14.8 | 1010.7 | 18.7 | WSW | 492 | 0.2 |
| 30.08.2025 | 17:29 | 22.5 | 62 | 14.9 | 1010.6 | 4.3 | SW | 339 | 0.2 |
| 30.08.2025 | 17:34 | 22.7 | 60 | 14.5 | 1010.6 | 14.4 | W | 390 | 0.2 |
| 30.08.2025 | 17:39 | 22.7 | 61 | 14.8 | 1010.6 | 4.3 | SSO | 403 | 0.2 |
| 30.08.2025 | 17:44 | 22.7 | 60 | 14.5 | 1010.6 | 8.3 | S | 371 | 0.2 |
| 30.08.2025 | 17:49 | 22.6 | 60 | 14.4 | 1010.6 | 14.4 | SSW | 388 | 0.2 |
| 30.08.2025 | 17:54 | 22.7 | 60 | 14.5 | 1010.6 | 4.3 | SSW | 345 | 0.2 |
| 30.08.2025 | 17:59 | 22.6 | 58 | 13.9 | 1010.6 | 14.4 | SW | 313 | 0.2 |
| 30.08.2025 | 18:04 | 22.4 | 60 | 14.3 | 1010.6 | 14.4 | SSW | 295 | 0.2 |
| 30.08.2025 | 18:10 | 22.4 | 59 | 14.0 | 1010.6 | 6.1 | W | 281 | 0.2 |
| 30.08.2025 | 18:15 | 22.2 | 58 | 13.5 | 1010.7 | 14.4 | SW | 267 | 0.2 |
| 30.08.2025 | 18:20 | 22.1 | 59 | 13.7 | 1010.7 | 8.3 | SW | 255 | 0.2 |
| 30.08.2025 | 18:25 | 22.1 | 58 | 13.4 | 1010.7 | 14.4 | WSW | 243 | 0.2 |
| 30.08.2025 | 18:30 | 21.9 | 59 | 13.5 | 1010.7 | 10.4 | WSW | 225 | 0.2 |
| 30.08.2025 | 18:35 | 21.8 | 60 | 13.7 | 1010.8 | 6.1 | WNW | 209 | 0.2 |
| 30.08.2025 | 18:40 | 21.8 | 61 | 13.9 | 1010.8 | 10.4 | SW | 197 | 0.2 |
| 30.08.2025 | 18:45 | 21.9 | 61 | 14.0 | 1010.8 | 6.1 | SW | 188 | 0.2 |
| 30.08.2025 | 18:50 | 21.9 | 61 | 14.0 | 1010.8 | 14.4 | SW | 176 | 0.2 |
| 30.08.2025 | 18:55 | 21.8 | 63 | 14.4 | 1010.8 | 12.6 | SSW | 79 | 0.2 |
| 30.08.2025 | 19:00 | 21.3 | 66 | 14.7 | 1010.7 | 8.3 | SW | 44 | 0.2 |
| 30.08.2025 | 19:05 | 20.8 | 68 | 14.7 | 1010.8 | 6.1 | SSW | 39 | 0.2 |
| 30.08.2025 | 19:10 | 20.7 | 70 | 15.0 | 1010.8 | 6.1 | SSW | 53 | 0.2 |
| 30.08.2025 | 19:15 | 20.6 | 71 | 15.2 | 1010.8 | 4.3 | SSW | 69 | 0.2 |
| 30.08.2025 | 19:20 | 20.6 | 71 | 15.2 | 1010.8 | 12.6 | SSW | 53 | 0.2 |
| 30.08.2025 | 19:25 | 20.4 | 71 | 15.0 | 1010.8 | 6.1 | SSW | 54 | 0.2 |
| 30.08.2025 | 19:30 | 20.4 | 72 | 15.2 | 1010.9 | 4.3 | S | 56 | 0.2 |
| 30.08.2025 | 19:35 | 20.4 | 72 | 15.2 | 1010.8 | 4.3 | SSW | 44 | 0.2 |
| 30.08.2025 | 19:40 | 20.4 | 72 | 15.2 | 1010.8 | 6.1 | S | 40 | 0.2 |
| 30.08.2025 | 19:45 | 20.3 | 72 | 15.1 | 1010.9 | 6.1 | S | 35 | 0.2 |
| 30.08.2025 | 19:50 | 20.3 | 72 | 15.1 | 1010.9 | 0.0 | S | 33 | 0.2 |
| 30.08.2025 | 19:55 | 20.2 | 73 | 15.2 | 1010.9 | 6.1 | SSO | 26 | 0.2 |
| 30.08.2025 | 20:00 | 20.1 | 72 | 14.9 | 1010.9 | 6.1 | S | 21 | 0.2 |
| 30.08.2025 | 20:05 | 20.0 | 73 | 15.0 | 1011.0 | 1.8 | SSW | 12 | 0.2 |
| 30.08.2025 | 20:10 | 19.8 | 73 | 14.8 | 1011.1 | 6.1 | S | 7 | 0.2 |
| 30.08.2025 | 20:15 | 19.6 | 74 | 14.8 | 1011.1 | 4.3 | S | 5 | 0.2 |
| 30.08.2025 | 20:20 | 19.3 | 75 | 14.8 | 1011.2 | 4.3 | S | 0 | 0.2 |
| 30.08.2025 | 20:25 | 19.1 | 76 | 14.8 | 1011.3 | 0.0 | S | 0 | 0.2 |
| 30.08.2025 | 20:30 | 18.8 | 77 | 14.7 | 1011.3 | 1.8 | S | 0 | 0.2 |
| 30.08.2025 | 20:35 | 18.7 | 78 | 14.8 | 1011.4 | 4.3 | S | 0 | 0.2 |
| 30.08.2025 | 20:40 | 18.5 | 79 | 14.8 | 1011.4 | 6.1 | SW | 0 | 0.2 |
| 30.08.2025 | 20:45 | 18.4 | 79 | 14.7 | 1011.5 | 4.3 | SW | 0 | 0.2 |
| 30.08.2025 | 20:50 | 18.4 | 79 | 14.7 | 1011.5 | 6.1 | SSW | 0 | 0.2 |
| 30.08.2025 | 20:56 | 18.4 | 79 | 14.7 | 1011.5 | 4.3 | SSW | 0 | 0.2 |
| 30.08.2025 | 21:01 | 18.3 | 79 | 14.6 | 1011.5 | 0.0 | SSW | 0 | 0.2 |
| 30.08.2025 | 21:06 | 18.3 | 79 | 14.6 | 1011.7 | 6.1 | SSW | 0 | 0.2 |
| 30.08.2025 | 21:11 | 18.1 | 80 | 14.6 | 1011.7 | 4.3 | SSW | 0 | 0.2 |
| 30.08.2025 | 21:16 | 17.9 | 81 | 14.6 | 1011.8 | 0.0 | SSW | 0 | 0.2 |
| 30.08.2025 | 21:21 | 17.9 | 81 | 14.6 | 1011.8 | 6.1 | SSW | 0 | 0.2 |
| 30.08.2025 | 21:26 | 17.9 | 80 | 14.4 | 1011.8 | 4.3 | SSW | 0 | 0.2 |
| 30.08.2025 | 21:31 | 17.8 | 81 | 14.5 | 1011.9 | 4.3 | SSW | 0 | 0.2 |
| 30.08.2025 | 21:36 | 17.7 | 81 | 14.4 | 1011.9 | 1.8 | SSW | 0 | 0.2 |
| 30.08.2025 | 21:41 | 17.5 | 82 | 14.4 | 1011.9 | 6.1 | SSW | 0 | 0.2 |
| 30.08.2025 | 21:46 | 17.4 | 83 | 14.5 | 1011.8 | 1.8 | SSW | 0 | 0.2 |
| 30.08.2025 | 21:51 | 17.3 | 83 | 14.4 | 1011.8 | 8.3 | SSW | 0 | 0.2 |
| 30.08.2025 | 21:56 | 17.3 | 83 | 14.4 | 1011.9 | 4.3 | SSW | 0 | 0.2 |
| 30.08.2025 | 22:01 | 17.3 | 83 | 14.4 | 1011.9 | 4.3 | SSW | 0 | 0.2 |
| 30.08.2025 | 22:06 | 17.2 | 84 | 14.5 | 1011.9 | 1.8 | SSW | 0 | 0.2 |
| 30.08.2025 | 22:11 | 16.9 | 84 | 14.2 | 1011.9 | 4.3 | SSW | 0 | 0.2 |
| 30.08.2025 | 22:16 | 16.8 | 85 | 14.3 | 1012.0 | 6.1 | SSW | 0 | 0.2 |
| 30.08.2025 | 22:21 | 16.8 | 85 | 14.3 | 1012.0 | 1.8 | SSW | 0 | 0.2 |
| 30.08.2025 | 22:26 | 16.7 | 85 | 14.2 | 1012.0 | 4.3 | SSW | 0 | 0.2 |
| 30.08.2025 | 22:31 | 16.6 | 85 | 14.1 | 1012.0 | 4.3 | SSW | 0 | 0.2 |
| 30.08.2025 | 22:36 | 16.4 | 86 | 14.1 | 1012.0 | 0.0 | SSW | 0 | 0.2 |
| 30.08.2025 | 22:41 | 16.3 | 86 | 14.0 | 1012.0 | 0.0 | SSW | 0 | 0.2 |
| 30.08.2025 | 22:46 | 16.1 | 87 | 13.9 | 1012.0 | 0.0 | SSW | 0 | 0.2 |
| 30.08.2025 | 22:51 | 16.0 | 87 | 13.8 | 1012.0 | 0.0 | SSW | 0 | 0.2 |
| 30.08.2025 | 22:56 | 16.0 | 87 | 13.8 | 1012.0 | 1.8 | SSW | 0 | 0.2 |
| 30.08.2025 | 23:01 | 15.9 | 87 | 13.7 | 1012.0 | 6.1 | SSW | 0 | 0.2 |
| 30.08.2025 | 23:06 | 15.8 | 88 | 13.8 | 1012.0 | 4.3 | SSW | 0 | 0.2 |
| 30.08.2025 | 23:11 | 15.6 | 88 | 13.6 | 1011.9 | 4.3 | SSW | 0 | 0.2 |
| 30.08.2025 | 23:16 | 15.5 | 89 | 13.7 | 1011.9 | 0.0 | SSW | 0 | 0.2 |
| 30.08.2025 | 23:21 | 15.4 | 88 | 13.4 | 1012.0 | 0.0 | SSW | 0 | 0.2 |
| 30.08.2025 | 23:26 | 15.3 | 89 | 13.5 | 1012.0 | 0.0 | SSW | 0 | 0.2 |
| 30.08.2025 | 23:31 | 15.1 | 90 | 13.5 | 1012.0 | 0.0 | SSW | 0 | 0.2 |
| 30.08.2025 | 23:36 | 14.9 | 90 | 13.3 | 1012.0 | 0.0 | SSW | 0 | 0.2 |
| 30.08.2025 | 23:42 | 14.7 | 90 | 13.1 | 1011.9 | 0.0 | SSW | 0 | 0.2 |
| 30.08.2025 | 23:47 | 14.6 | 91 | 13.1 | 1011.9 | 0.0 | SSW | 0 | 0.2 |
| 30.08.2025 | 23:52 | 14.6 | 91 | 13.1 | 1011.9 | 0.0 | SSW | 0 | 0.2 |
| 30.08.2025 | 23:57 | 14.7 | 91 | 13.2 | 1012.0 | 0.0 | SSW | 0 | 0.2 |